Longwood, Missouri
Current Conditions -  °F | °C
As of 9:53 AM on Wednesday 22 Oct 2014 (Local Time) from KDMO Reporting Station
Clear Clear  
Wind Chill: 55°   Ceiling: Unl
Heat Index: 55°   Visibility: 10mi
Dew Point: 45°   Wind: 12mph
Humidity: 69%   Direction: 150°SSE
Pressure: 30.27"   Gusts: NA
Location:  38.8574°N, 93.2065°W
Report Text: KDMO 221453Z AUTO 15010KT 10SM CLR 13/07 A3027 RMK AO2 SLP250 T01280072 51012
Loading
Personal Weather Stations






























Interactive Weather Map
Tropical Storm Tracking
New forecast layout! Learn more

10-Day Weather Forecast

Advertisements
Track Severe Weather on mobile